sensor_id;sensor_type;location;lat;lon;timestamp;pressure;altitude;pressure_sealevel;temperature;humidity
57779;BME280;43608;49.486;9.640;2023-12-20T00:00:11;98657.59;;;4.47;100.00
57779;BME280;43608;49.486;9.640;2023-12-20T00:00:41;98654.97;;;4.47;100.00
57779;BME280;43608;49.486;9.640;2023-12-20T00:01:11;98642.72;;;4.46;100.00
57779;BME280;43608;49.486;9.640;2023-12-20T00:01:42;98653.22;;;4.46;100.00
57779;BME280;43608;49.486;9.640;2023-12-20T00:02:12;98647.09;;;4.47;100.00
57779;BME280;43608;49.486;9.640;2023-12-20T00:02:42;98653.22;;;4.46;100.00
57779;BME280;43608;49.486;9.640;2023-12-20T00:03:16;98646.16;;;4.44;100.00
57779;BME280;43608;49.486;9.640;2023-12-20T00:03:47;98638.22;;;4.41;100.00
57779;BME280;43608;49.486;9.640;2023-12-20T00:04:17;98642.69;;;4.45;100.00
57779;BME280;43608;49.486;9.640;2023-12-20T00:04:47;98647.06;;;4.46;100.00
57779;BME280;43608;49.486;9.640;2023-12-20T00:05:18;98639.19;;;4.46;100.00
57779;BME280;43608;49.486;9.640;2023-12-20T00:05:48;98612.59;;;4.27;100.00
57779;BME280;43608;49.486;9.640;2023-12-20T00:06:19;98642.72;;;4.46;100.00
57779;BME280;43608;49.486;9.640;2023-12-20T00:06:52;98647.09;;;4.47;100.00
57779;BME280;43608;49.486;9.640;2023-12-20T00:07:22;98640.97;;;4.47;100.00
57779;BME280;43608;49.486;9.640;2023-12-20T00:07:52;98646.13;;;4.42;100.00
57779;BME280;43608;49.486;9.640;2023-12-20T00:08:23;98645.34;;;4.48;100.00
57779;BME280;43608;49.486;9.640;2023-12-20T00:08:53;98644.50;;;4.47;100.00
57779;BME280;43608;49.486;9.640;2023-12-20T00:09:24;98645.34;;;4.48;100.00
57779;BME280;43608;49.486;9.640;2023-12-20T00:09:54;98640.06;;;4.45;100.00
57779;BME280;43608;49.486;9.640;2023-12-20T00:10:24;98630.41;;;4.44;100.00
57779;BME280;43608;49.486;9.640;2023-12-20T00:10:55;98627.84;;;4.47;100.00
57779;BME280;43608;49.486;9.640;2023-12-20T00:11:25;98645.34;;;4.46;100.00
57779;BME280;43608;49.486;9.640;2023-12-20T00:11:55;98641.81;;;4.46;100.00
57779;BME280;43608;49.486;9.640;2023-12-20T00:12:26;98645.34;;;4.46;100.00
57779;BME280;43608;49.486;9.640;2023-12-20T00:12:56;98633.88;;;4.43;100.00
57779;BME280;43608;49.486;9.640;2023-12-20T00:13:27;98637.47;;;4.46;100.00
57779;BME280;43608;49.486;9.640;2023-12-20T00:13:57;98638.25;;;4.42;100.00
57779;BME280;43608;49.486;9.640;2023-12-20T00:14:27;98645.34;;;4.46;100.00
57779;BME280;43608;49.486;9.640;2023-12-20T00:14:58;98632.22;;;4.48;100.00
57779;BME280;43608;49.486;9.640;2023-12-20T00:15:28;98642.72;;;4.46;100.00
57779;BME280;43608;49.486;9.640;2023-12-20T00:15:59;98640.94;;;4.45;100.00
57779;BME280;43608;49.486;9.640;2023-12-20T00:16:29;98633.09;;;4.47;100.00
57779;BME280;43608;49.486;9.640;2023-12-20T00:16:59;98639.19;;;4.46;100.00
57779;BME280;43608;49.486;9.640;2023-12-20T00:17:30;98636.63;;;4.47;100.00
57779;BME280;43608;49.486;9.640;2023-12-20T00:18:00;98632.97;;;4.41;100.00
57779;BME280;43608;49.486;9.640;2023-12-20T00:18:31;98629.59;;;4.46;100.00
57779;BME280;43608;49.486;9.640;2023-12-20T00:19:01;98620.72;;;4.40;100.00
57779;BME280;43608;49.486;9.640;2023-12-20T00:19:31;98640.97;;;4.47;100.00
57779;BME280;43608;49.486;9.640;2023-12-20T00:20:02;98616.22;;;4.34;100.00
57779;BME280;43608;49.486;9.640;2023-12-20T00:20:32;98643.59;;;4.49;100.00
57779;BME280;43608;49.486;9.640;2023-12-20T00:21:03;98631.38;;;4.47;100.00
57779;BME280;43608;49.486;9.640;2023-12-20T00:21:33;98622.59;;;4.47;100.00
57779;BME280;43608;49.486;9.640;2023-12-20T00:22:04;98624.25;;;4.43;100.00
57779;BME280;43608;49.486;9.640;2023-12-20T00:22:34;98629.59;;;4.46;100.00
57779;BME280;43608;49.486;9.640;2023-12-20T00:23:04;98609.13;;;4.30;100.00
57779;BME280;43608;49.486;9.640;2023-12-20T00:23:35;98625.22;;;4.47;100.00
57779;BME280;43608;49.486;9.640;2023-12-20T00:24:05;98629.59;;;4.46;100.00
57779;BME280;43608;49.486;9.640;2023-12-20T00:24:35;98623.44;;;4.46;100.00
57779;BME280;43608;49.486;9.640;2023-12-20T00:25:06;98602.19;;;4.30;100.00
57779;BME280;43608;49.486;9.640;2023-12-20T00:25:37;98622.56;;;4.45;100.00
57779;BME280;43608;49.486;9.640;2023-12-20T00:26:07;98630.47;;;4.47;100.00
57779;BME280;43608;49.486;9.640;2023-12-20T00:26:37;98622.56;;;4.45;100.00
57779;BME280;43608;49.486;9.640;2023-12-20T00:27:08;98534.19;;;3.95;100.00
57779;BME280;43608;49.486;9.640;2023-12-20T00:27:38;98620.78;;;4.44;100.00
57779;BME280;43608;49.486;9.640;2023-12-20T00:28:09;98588.94;;;4.24;100.00
57779;BME280;43608;49.486;9.640;2023-12-20T00:28:39;98622.56;;;4.45;100.00
57779;BME280;43608;49.486;9.640;2023-12-20T00:29:09;98609.41;;;4.42;100.00
57779;BME280;43608;49.486;9.640;2023-12-20T00:29:40;98615.53;;;4.44;100.00
57779;BME280;43608;49.486;9.640;2023-12-20T00:30:10;98590.75;;;4.28;100.00
57779;BME280;43608;49.486;9.640;2023-12-20T00:30:41;98615.56;;;4.46;100.00
57779;BME280;43608;49.486;9.640;2023-12-20T00:31:11;98614.69;;;4.45;100.00
57779;BME280;43608;49.486;9.640;2023-12-20T00:31:42;98620.75;;;4.43;100.00
57779;BME280;43608;49.486;9.640;2023-12-20T00:32:12;98614.66;;;4.44;100.00
57779;BME280;43608;49.486;9.640;2023-12-20T00:32:42;98618.16;;;4.44;100.00
57779;BME280;43608;49.486;9.640;2023-12-20T00:33:16;98617.31;;;4.45;100.00
57779;BME280;43608;49.486;9.640;2023-12-20T00:33:46;98612.06;;;4.45;100.00
57779;BME280;43608;49.486;9.640;2023-12-20T00:34:17;98614.66;;;4.42;100.00
57779;BME280;43608;49.486;9.640;2023-12-20T00:34:47;98590.94;;;4.39;100.00
57779;BME280;43608;49.486;9.640;2023-12-20T00:35:18;98608.44;;;4.39;100.00
57779;BME280;43608;49.486;9.640;2023-12-20T00:35:48;98602.41;;;4.43;100.00
57779;BME280;43608;49.486;9.640;2023-12-20T00:36:19;98591.72;;;4.34;100.00
57779;BME280;43608;49.486;9.640;2023-12-20T00:36:49;98614.66;;;4.42;100.00
57779;BME280;43608;49.486;9.640;2023-12-20T00:37:20;98619.06;;;4.45;100.00
57779;BME280;43608;49.486;9.640;2023-12-20T00:37:50;98612.06;;;4.45;100.00
57779;BME280;43608;49.486;9.640;2023-12-20T00:38:20;98626.06;;;4.46;100.00
57779;BME280;43608;49.486;9.640;2023-12-20T00:38:51;98612.06;;;4.45;100.00
57779;BME280;43608;49.486;9.640;2023-12-20T00:39:22;98606.78;;;4.44;100.00
57779;BME280;43608;49.486;9.640;2023-12-20T00:39:52;98612.91;;;4.44;100.00
57779;BME280;43608;49.486;9.640;2023-12-20T00:40:22;98607.66;;;4.44;100.00
57779;BME280;43608;49.486;9.640;2023-12-20T00:40:53;98607.66;;;4.44;100.00
57779;BME280;43608;49.486;9.640;2023-12-20T00:41:23;98607.59;;;4.40;100.00
57779;BME280;43608;49.486;9.640;2023-12-20T00:41:53;98604.16;;;4.42;100.00
57779;BME280;43608;49.486;9.640;2023-12-20T00:42:24;98612.06;;;4.45;100.00
57779;BME280;43608;49.486;9.640;2023-12-20T00:42:54;98607.66;;;4.44;100.00
57779;BME280;43608;49.486;9.640;2023-12-20T00:43:24;98610.28;;;4.44;100.00
57779;BME280;43608;49.486;9.640;2023-12-20T00:43:55;98603.31;;;4.45;100.00
57779;BME280;43608;49.486;9.640;2023-12-20T00:44:25;98607.66;;;4.44;100.00
57779;BME280;43608;49.486;9.640;2023-12-20T00:44:55;98567.91;;;4.23;100.00
57779;BME280;43608;49.486;9.640;2023-12-20T00:45:26;98590.88;;;4.35;100.00
57779;BME280;43608;49.486;9.640;2023-12-20T00:45:57;98601.53;;;4.44;100.00
57779;BME280;43608;49.486;9.640;2023-12-20T00:46:27;98573.22;;;4.26;100.00
57779;BME280;43608;49.486;9.640;2023-12-20T00:46:57;98605.88;;;4.42;100.00
57779;BME280;43608;49.486;9.640;2023-12-20T00:47:28;98608.56;;;4.45;100.00
57779;BME280;43608;49.486;9.640;2023-12-20T00:47:58;98597.16;;;4.43;100.00
57779;BME280;43608;49.486;9.640;2023-12-20T00:48:29;98598.91;;;4.44;100.00
57779;BME280;43608;49.486;9.640;2023-12-20T00:49:02;98600.63;;;4.42;100.00
57779;BME280;43608;49.486;9.640;2023-12-20T00:49:32;98603.25;;;4.43;100.00
57779;BME280;43608;49.486;9.640;2023-12-20T00:50:03;98598.00;;;4.42;100.00
57779;BME280;43608;49.486;9.640;2023-12-20T00:50:33;98598.00;;;4.42;100.00
57779;BME280;43608;49.486;9.640;2023-12-20T00:51:04;98598.91;;;4.44;100.00
57779;BME280;43608;49.486;9.640;2023-12-20T00:51:34;98605.00;;;4.41;100.00
57779;BME280;43608;49.486;9.640;2023-12-20T00:52:05;98602.41;;;4.43;100.00
57779;BME280;43608;49.486;9.640;2023-12-20T00:52:35;98583.00;;;4.35;100.00
57779;BME280;43608;49.486;9.640;2023-12-20T00:53:08;98601.47;;;4.41;100.00
57779;BME280;43608;49.486;9.640;2023-12-20T00:53:39;98602.44;;;4.46;100.00
57779;BME280;43608;49.486;9.640;2023-12-20T00:54:09;98605.03;;;4.44;100.00
57779;BME280;43608;49.486;9.640;2023-12-20T00:54:39;98605.03;;;4.44;100.00
57779;BME280;43608;49.486;9.640;2023-12-20T00:55:10;98605.94;;;4.45;100.00
57779;BME280;43608;49.486;9.640;2023-12-20T00:55:40;98587.44;;;4.37;100.00
57779;BME280;43608;49.486;9.640;2023-12-20T00:56:10;98596.28;;;4.44;100.00
57779;BME280;43608;49.486;9.640;2023-12-20T00:56:41;98604.16;;;4.44;100.00
57779;BME280;43608;49.486;9.640;2023-12-20T00:57:11;98608.50;;;4.43;100.00
57779;BME280;43608;49.486;9.640;2023-12-20T00:57:41;98594.53;;;4.43;100.00
57779;BME280;43608;49.486;9.640;2023-12-20T00:58:12;98595.38;;;4.43;100.00
57779;BME280;43608;49.486;9.640;2023-12-20T00:58:42;98595.38;;;4.42;100.00
57779;BME280;43608;49.486;9.640;2023-12-20T00:59:12;98598.91;;;4.44;100.00
57779;BME280;43608;49.486;9.640;2023-12-20T00:59:43;98597.16;;;4.43;100.00
57779;BME280;43608;49.486;9.640;2023-12-20T01:00:13;98603.25;;;4.42;100.00
57779;BME280;43608;49.486;9.640;2023-12-20T01:00:44;98595.38;;;4.43;100.00
57779;BME280;43608;49.486;9.640;2023-12-20T01:01:15;98567.91;;;4.23;100.00
57779;BME280;43608;49.486;9.640;2023-12-20T01:01:45;98596.28;;;4.44;100.00
57779;BME280;43608;49.486;9.640;2023-12-20T01:02:16;98601.53;;;4.44;100.00
57779;BME280;43608;49.486;9.640;2023-12-20T01:02:46;98598.91;;;4.44;100.00
57779;BME280;43608;49.486;9.640;2023-12-20T01:03:19;98593.66;;;4.44;100.00
57779;BME280;43608;49.486;9.640;2023-12-20T01:03:49;98592.75;;;4.42;100.00
57779;BME280;43608;49.486;9.640;2023-12-20T01:04:21;98600.69;;;4.45;100.00
57779;BME280;43608;49.486;9.640;2023-12-20T01:04:51;98589.22;;;4.40;100.00
57779;BME280;43608;49.486;9.640;2023-12-20T01:05:22;98587.53;;;4.43;100.00
57779;BME280;43608;49.486;9.640;2023-12-20T01:05:55;98596.28;;;4.44;100.00
57779;BME280;43608;49.486;9.640;2023-12-20T01:06:25;98590.16;;;4.43;100.00
57779;BME280;43608;49.486;9.640;2023-12-20T01:06:55;98600.69;;;4.45;100.00
57779;BME280;43608;49.486;9.640;2023-12-20T01:07:26;98591.91;;;4.43;100.00
57779;BME280;43608;49.486;9.640;2023-12-20T01:07:56;98601.53;;;4.42;100.00
57779;BME280;43608;49.486;9.640;2023-12-20T01:08:26;98595.38;;;4.42;100.00
57779;BME280;43608;49.486;9.640;2023-12-20T01:08:57;98605.88;;;4.42;100.00
57779;BME280;43608;49.486;9.640;2023-12-20T01:09:27;98595.31;;;4.39;100.00
57779;BME280;43608;49.486;9.640;2023-12-20T01:09:57;98596.28;;;4.42;100.00
57779;BME280;43608;49.486;9.640;2023-12-20T01:10:28;98598.91;;;4.42;100.00
57779;BME280;43608;49.486;9.640;2023-12-20T01:10:59;98590.06;;;4.39;100.00
57779;BME280;43608;49.486;9.640;2023-12-20T01:11:29;98595.38;;;4.42;100.00
57779;BME280;43608;49.486;9.640;2023-12-20T01:12:00;98605.00;;;4.41;100.00
57779;BME280;43608;49.486;9.640;2023-12-20T01:12:30;98594.50;;;4.41;100.00
57779;BME280;43608;49.486;9.640;2023-12-20T01:13:00;98601.47;;;4.41;100.00
57779;BME280;43608;49.486;9.640;2023-12-20T01:13:31;98580.28;;;4.30;100.00
57779;BME280;43608;49.486;9.640;2023-12-20T01:14:01;98591.84;;;4.40;100.00
57779;BME280;43608;49.486;9.640;2023-12-20T01:14:32;98594.44;;;4.38;100.00
57779;BME280;43608;49.486;9.640;2023-12-20T01:15:02;98594.47;;;4.40;100.00
57779;BME280;43608;49.486;9.640;2023-12-20T01:15:32;98590.06;;;4.39;100.00
57779;BME280;43608;49.486;9.640;2023-12-20T01:16:03;98595.22;;;4.34;100.00
57779;BME280;43608;49.486;9.640;2023-12-20T01:16:34;98592.69;;;4.37;100.00
57779;BME280;43608;49.486;9.640;2023-12-20T01:17:04;98590.94;;;4.39;100.00
57779;BME280;43608;49.486;9.640;2023-12-20T01:17:34;98595.31;;;4.39;100.00
57779;BME280;43608;49.486;9.640;2023-12-20T01:18:05;98593.56;;;4.39;100.00
57779;BME280;43608;49.486;9.640;2023-12-20T01:18:35;98587.44;;;4.39;100.00
57779;BME280;43608;49.486;9.640;2023-12-20T01:19:06;98583.97;;;4.38;100.00
57779;BME280;43608;49.486;9.640;2023-12-20T01:19:36;98583.97;;;4.38;100.00
57779;BME280;43608;49.486;9.640;2023-12-20T01:20:07;98580.31;;;4.32;100.00
57779;BME280;43608;49.486;9.640;2023-12-20T01:20:38;98577.81;;;4.38;100.00
57779;BME280;43608;49.486;9.640;2023-12-20T01:21:08;98575.88;;;4.27;100.00
57779;BME280;43608;49.486;9.640;2023-12-20T01:21:40;98589.16;;;4.37;100.00
57779;BME280;43608;49.486;9.640;2023-12-20T01:22:10;98597.81;;;4.33;100.00
57779;BME280;43608;49.486;9.640;2023-12-20T01:22:41;98595.28;;;4.36;100.00
57779;BME280;43608;49.486;9.640;2023-12-20T01:23:13;98592.66;;;4.36;100.00
57779;BME280;43608;49.486;9.640;2023-12-20T01:23:43;98582.06;;;4.33;100.00
57779;BME280;43608;49.486;9.640;2023-12-20T01:24:13;98593.47;;;4.33;100.00
57779;BME280;43608;49.486;9.640;2023-12-20T01:24:44;98592.59;;;4.34;100.00
57779;BME280;43608;49.486;9.640;2023-12-20T01:25:14;98588.25;;;4.35;100.00
57779;BME280;43608;49.486;9.640;2023-12-20T01:25:44;98589.00;;;4.29;100.00
57779;BME280;43608;49.486;9.640;2023-12-20T01:26:15;98564.34;;;4.19;100.00
57779;BME280;43608;49.486;9.640;2023-12-20T01:26:45;98594.34;;;4.34;100.00
57779;BME280;43608;49.486;9.640;2023-12-20T01:27:15;98590.84;;;4.33;100.00
57779;BME280;43608;49.486;9.640;2023-12-20T01:27:46;98564.34;;;4.19;100.00
57779;BME280;43608;49.486;9.640;2023-12-20T01:28:16;98589.09;;;4.32;100.00
57779;BME280;43608;49.486;9.640;2023-12-20T01:28:47;98591.69;;;4.30;100.00
57779;BME280;43608;49.486;9.640;2023-12-20T01:29:17;98585.56;;;4.32;100.00
57779;BME280;43608;49.486;9.640;2023-12-20T01:29:48;98577.59;;;4.27;100.00
57779;BME280;43608;49.486;9.640;2023-12-20T01:30:18;98582.91;;;4.30;100.00
57779;BME280;43608;49.486;9.640;2023-12-20T01:30:49;98587.31;;;4.31;100.00
57779;BME280;43608;49.486;9.640;2023-12-20T01:31:19;98573.31;;;4.30;100.00
57779;BME280;43608;49.486;9.640;2023-12-20T01:31:50;98583.81;;;4.30;100.00
57779;BME280;43608;49.486;9.640;2023-12-20T01:32:20;98582.91;;;4.30;100.00
57779;BME280;43608;49.486;9.640;2023-12-20T01:32:50;98576.75;;;4.28;100.00
57779;BME280;43608;49.486;9.640;2023-12-20T01:33:21;98579.41;;;4.29;100.00
57779;BME280;43608;49.486;9.640;2023-12-20T01:33:51;98582.00;;;4.28;100.00
57779;BME280;43608;49.486;9.640;2023-12-20T01:34:22;98578.47;;;4.26;100.00
57779;BME280;43608;49.486;9.640;2023-12-20T01:34:52;98585.47;;;4.27;100.00
57779;BME280;43608;49.486;9.640;2023-12-20T01:35:22;98577.50;;;4.22;100.00
57779;BME280;43608;49.486;9.640;2023-12-20T01:35:53;98581.09;;;4.27;100.00
57779;BME280;43608;49.486;9.640;2023-12-20T01:36:23;98581.09;;;4.26;100.00
57779;BME280;43608;49.486;9.640;2023-12-20T01:36:53;98585.47;;;4.27;100.00
57779;BME280;43608;49.486;9.640;2023-12-20T01:37:24;98586.34;;;4.27;100.00
57779;BME280;43608;49.486;9.640;2023-12-20T01:37:55;98592.38;;;4.22;100.00
57779;BME280;43608;49.486;9.640;2023-12-20T01:38:26;98578.47;;;4.26;100.00
57779;BME280;43608;49.486;9.640;2023-12-20T01:38:57;98577.53;;;4.24;100.00
57779;BME280;43608;49.486;9.640;2023-12-20T01:39:27;98579.34;;;4.26;100.00
57779;BME280;43608;49.486;9.640;2023-12-20T01:39:57;98579.25;;;4.22;100.00
57779;BME280;43608;49.486;9.640;2023-12-20T01:40:28;98589.81;;;4.26;100.00
57779;BME280;43608;49.486;9.640;2023-12-20T01:40:59;98585.47;;;4.25;100.00
57779;BME280;43608;49.486;9.640;2023-12-20T01:41:30;98509.34;;;3.78;100.00
57779;BME280;43608;49.486;9.640;2023-12-20T01:42:00;98573.13;;;4.21;100.00
57779;BME280;43608;49.486;9.640;2023-12-20T01:42:30;98587.19;;;4.25;100.00
57779;BME280;43608;49.486;9.640;2023-12-20T01:43:04;98579.19;;;4.19;100.00
57779;BME280;43608;49.486;9.640;2023-12-20T01:43:35;98586.34;;;4.26;100.00
57779;BME280;43608;49.486;9.640;2023-12-20T01:44:05;98593.34;;;4.25;100.00
57779;BME280;43608;49.486;9.640;2023-12-20T01:44:36;98588.94;;;4.24;100.00
57779;BME280;43608;49.486;9.640;2023-12-20T01:45:06;98585.47;;;4.25;100.00
57779;BME280;43608;49.486;9.640;2023-12-20T01:45:37;98587.19;;;4.25;100.00
57779;BME280;43608;49.486;9.640;2023-12-20T01:46:07;98580.16;;;4.24;100.00
57779;BME280;43608;49.486;9.640;2023-12-20T01:46:38;98580.09;;;4.21;100.00
57779;BME280;43608;49.486;9.640;2023-12-20T01:47:08;98579.31;;;4.25;100.00
57779;BME280;43608;49.486;9.640;2023-12-20T01:47:39;98583.69;;;4.24;100.00
57779;BME280;43608;49.486;9.640;2023-12-20T01:48:09;98580.16;;;4.24;100.00
57779;BME280;43608;49.486;9.640;2023-12-20T01:48:41;98582.78;;;4.24;100.00
57779;BME280;43608;49.486;9.640;2023-12-20T01:49:11;98574.84;;;4.19;100.00
57779;BME280;43608;49.486;9.640;2023-12-20T01:49:42;98582.75;;;4.22;100.00
57779;BME280;43608;49.486;9.640;2023-12-20T01:50:13;98594.16;;;4.23;100.00
57779;BME280;43608;49.486;9.640;2023-12-20T01:50:44;98581.81;;;4.19;100.00
57779;BME280;43608;49.486;9.640;2023-12-20T01:51:15;98543.78;;;3.96;100.00
57779;BME280;43608;49.486;9.640;2023-12-20T01:51:46;98580.97;;;4.21;100.00
57779;BME280;43608;49.486;9.640;2023-12-20T01:52:17;98588.00;;;4.22;100.00
57779;BME280;43608;49.486;9.640;2023-12-20T01:52:47;98584.50;;;4.22;100.00
57779;BME280;43608;49.486;9.640;2023-12-20T01:53:20;98595.84;;;4.21;100.00
57779;BME280;43608;49.486;9.640;2023-12-20T01:53:51;98588.84;;;4.21;100.00
57779;BME280;43608;49.486;9.640;2023-12-20T01:54:22;98587.09;;;4.20;100.00
57779;BME280;43608;49.486;9.640;2023-12-20T01:54:53;98561.44;;;4.05;100.00
57779;BME280;43608;49.486;9.640;2023-12-20T01:55:25;98589.72;;;4.20;100.00
57779;BME280;43608;49.486;9.640;2023-12-20T01:55:58;98587.06;;;4.19;100.00
57779;BME280;43608;49.486;9.640;2023-12-20T01:56:29;98586.19;;;4.20;100.00
57779;BME280;43608;49.486;9.640;2023-12-20T01:57:01;98551.75;;;4.01;100.00
57779;BME280;43608;49.486;9.640;2023-12-20T01:57:32;98573.03;;;4.17;100.00
57779;BME280;43608;49.486;9.640;2023-12-20T01:58:03;98578.31;;;4.18;100.00
57779;BME280;43608;49.486;9.640;2023-12-20T01:58:34;98571.25;;;4.16;100.00
57779;BME280;43608;49.486;9.640;2023-12-20T01:59:04;98579.16;;;4.17;100.00
57779;BME280;43608;49.486;9.640;2023-12-20T01:59:36;98575.56;;;4.12;100.00
57779;BME280;43608;49.486;9.640;2023-12-20T02:00:07;98581.81;;;4.19;100.00
57779;BME280;43608;49.486;9.640;2023-12-20T02:00:39;98583.56;;;4.18;100.00
57779;BME280;43608;49.486;9.640;2023-12-20T02:01:10;98583.53;;;4.17;100.00
57779;BME280;43608;49.486;9.640;2023-12-20T02:01:40;98586.19;;;4.18;100.00
57779;BME280;43608;49.486;9.640;2023-12-20T02:02:11;98592.28;;;4.19;100.00
57779;BME280;43608;49.486;9.640;2023-12-20T02:02:43;98577.38;;;4.16;100.00
57779;BME280;43608;49.486;9.640;2023-12-20T02:03:14;98581.81;;;4.19;100.00
57779;BME280;43608;49.486;9.640;2023-12-20T02:03:45;98575.69;;;4.18;100.00
57779;BME280;43608;49.486;9.640;2023-12-20T02:04:16;98579.19;;;4.19;100.00
57779;BME280;43608;49.486;9.640;2023-12-20T02:04:46;98584.41;;;4.17;100.00
57779;BME280;43608;49.486;9.640;2023-12-20T02:05:17;98583.44;;;4.13;100.00
57779;BME280;43608;49.486;9.640;2023-12-20T02:05:48;98576.34;;;4.06;100.00
57779;BME280;43608;49.486;9.640;2023-12-20T02:06:18;98589.59;;;4.14;100.00
57779;BME280;43608;49.486;9.640;2023-12-20T02:06:52;98589.66;;;4.17;100.00
57779;BME280;43608;49.486;9.640;2023-12-20T02:07:23;98599.28;;;4.18;100.00
57779;BME280;43608;49.486;9.640;2023-12-20T02:07:53;98595.81;;;4.18;100.00
57779;BME280;43608;49.486;9.640;2023-12-20T02:08:24;98592.28;;;4.17;100.00
57779;BME280;43608;49.486;9.640;2023-12-20T02:08:54;98608.00;;;4.17;100.00
57779;BME280;43608;49.486;9.640;2023-12-20T02:09:25;98591.41;;;4.17;100.00
57779;BME280;43608;49.486;9.640;2023-12-20T02:09:55;98582.69;;;4.18;100.00
57779;BME280;43608;49.486;9.640;2023-12-20T02:10:26;98560.47;;;4.00;100.00
57779;BME280;43608;49.486;9.640;2023-12-20T02:10:57;98593.13;;;4.16;100.00
57779;BME280;43608;49.486;9.640;2023-12-20T02:11:27;98588.78;;;4.17;100.00
57779;BME280;43608;49.486;9.640;2023-12-20T02:11:58;98584.34;;;4.12;100.00
57779;BME280;43608;49.486;9.640;2023-12-20T02:12:30;98592.28;;;4.17;100.00
57779;BME280;43608;49.486;9.640;2023-12-20T02:13:00;98594.91;;;4.17;100.00
57779;BME280;43608;49.486;9.640;2023-12-20T02:13:31;98593.19;;;4.18;100.00
57779;BME280;43608;49.486;9.640;2023-12-20T02:14:01;98584.38;;;4.16;100.00
57779;BME280;43608;49.486;9.640;2023-12-20T02:14:31;98574.66;;;4.10;100.00
57779;BME280;43608;49.486;9.640;2023-12-20T02:15:03;98555.19;;;3.99;100.00
57779;BME280;43608;49.486;9.640;2023-12-20T02:15:34;98592.28;;;4.17;100.00
57779;BME280;43608;49.486;9.640;2023-12-20T02:16:07;98585.31;;;4.18;100.00
57779;BME280;43608;49.486;9.640;2023-12-20T02:16:37;98588.81;;;4.18;100.00
57779;BME280;43608;49.486;9.640;2023-12-20T02:17:08;98580.00;;;4.16;100.00
57779;BME280;43608;49.486;9.640;2023-12-20T02:17:38;98582.63;;;4.16;100.00
57779;BME280;43608;49.486;9.640;2023-12-20T02:18:09;98580.06;;;4.18;100.00
57779;BME280;43608;49.486;9.640;2023-12-20T02:18:42;98580.06;;;4.18;100.00
57779;BME280;43608;49.486;9.640;2023-12-20T02:19:14;98581.78;;;4.17;100.00
57779;BME280;43608;49.486;9.640;2023-12-20T02:19:45;98584.44;;;4.19;100.00
57779;BME280;43608;49.486;9.640;2023-12-20T02:20:15;98580.09;;;4.19;100.00
57779;BME280;43608;49.486;9.640;2023-12-20T02:20:46;98578.28;;;4.17;100.00
57779;BME280;43608;49.486;9.640;2023-12-20T02:21:16;98561.44;;;4.05;100.00
57779;BME280;43608;49.486;9.640;2023-12-20T02:21:46;98579.19;;;4.19;100.00
57779;BME280;43608;49.486;9.640;2023-12-20T02:22:17;98585.34;;;4.19;100.00
57779;BME280;43608;49.486;9.640;2023-12-20T02:22:47;98565.88;;;4.09;100.00
57779;BME280;43608;49.486;9.640;2023-12-20T02:23:18;98580.06;;;4.18;100.00
57779;BME280;43608;49.486;9.640;2023-12-20T02:23:48;98579.16;;;4.17;100.00
57779;BME280;43608;49.486;9.640;2023-12-20T02:24:18;98583.56;;;4.18;100.00
57779;BME280;43608;49.486;9.640;2023-12-20T02:24:49;98571.13;;;4.09;100.00
57779;BME280;43608;49.486;9.640;2023-12-20T02:25:19;98573.88;;;4.14;100.00
57779;BME280;43608;49.486;9.640;2023-12-20T02:25:50;98582.69;;;4.18;100.00
57779;BME280;43608;49.486;9.640;2023-12-20T02:26:20;98584.44;;;4.19;100.00
57779;BME280;43608;49.486;9.640;2023-12-20T02:26:50;98591.44;;;4.18;100.00
57779;BME280;43608;49.486;9.640;2023-12-20T02:27:21;98585.31;;;4.18;100.00
57779;BME280;43608;49.486;9.640;2023-12-20T02:27:53;98582.69;;;4.18;100.00
57779;BME280;43608;49.486;9.640;2023-12-20T02:28:24;98580.06;;;4.18;100.00
57779;BME280;43608;49.486;9.640;2023-12-20T02:28:54;98579.19;;;4.19;100.00
57779;BME280;43608;49.486;9.640;2023-12-20T02:29:25;98573.94;;;4.19;100.00
57779;BME280;43608;49.486;9.640;2023-12-20T02:29:56;98571.28;;;4.17;100.00
57779;BME280;43608;49.486;9.640;2023-12-20T02:30:27;98572.19;;;4.18;100.00
57779;BME280;43608;49.486;9.640;2023-12-20T02:30:57;98575.69;;;4.18;100.00
57779;BME280;43608;49.486;9.640;2023-12-20T02:31:27;98572.19;;;4.18;100.00
57779;BME280;43608;49.486;9.640;2023-12-20T02:31:58;98558.97;;;4.13;100.00
57779;BME280;43608;49.486;9.640;2023-12-20T02:32:28;98571.28;;;4.17;100.00
57779;BME280;43608;49.486;9.640;2023-12-20T02:32:59;98573.94;;;4.19;100.00
57779;BME280;43608;49.486;9.640;2023-12-20T02:33:31;98545.72;;;4.07;100.00
57779;BME280;43608;49.486;9.640;2023-12-20T02:34:01;98571.31;;;4.19;100.00
57779;BME280;43608;49.486;9.640;2023-12-20T02:34:31;98571.31;;;4.19;100.00
57779;BME280;43608;49.486;9.640;2023-12-20T02:35:02;98517.41;;;3.89;100.00
57779;BME280;43608;49.486;9.640;2023-12-20T02:35:32;98568.69;;;4.19;100.00
57779;BME280;43608;49.486;9.640;2023-12-20T02:36:03;98567.81;;;4.18;100.00
57779;BME280;43608;49.486;9.640;2023-12-20T02:36:33;98572.19;;;4.18;100.00
57779;BME280;43608;49.486;9.640;2023-12-20T02:37:03;98573.06;;;4.18;100.00
57779;BME280;43608;49.486;9.640;2023-12-20T02:37:34;98571.28;;;4.17;100.00
57779;BME280;43608;49.486;9.640;2023-12-20T02:38:04;98571.28;;;4.17;100.00
57779;BME280;43608;49.486;9.640;2023-12-20T02:38:35;98573.06;;;4.18;100.00
57779;BME280;43608;49.486;9.640;2023-12-20T02:39:05;98571.25;;;4.16;100.00
57779;BME280;43608;49.486;9.640;2023-12-20T02:39:35;98560.66;;;4.09;100.00
57779;BME280;43608;49.486;9.640;2023-12-20T02:40:06;98575.66;;;4.17;100.00
57779;BME280;43608;49.486;9.640;2023-12-20T02:40:37;98573.00;;;4.15;100.00
57779;BME280;43608;49.486;9.640;2023-12-20T02:41:07;98565.03;;;4.10;100.00
57779;BME280;43608;49.486;9.640;2023-12-20T02:41:38;98577.44;;;4.18;100.00
57779;BME280;43608;49.486;9.640;2023-12-20T02:42:08;98571.28;;;4.17;100.00